sensor_id;sensor_type;location;lat;lon;timestamp;P1;durP1;ratioP1;P2;durP2;ratioP2
47856;SDS011;33618;49.972;8.242;2022-12-18T00:01:00;47.72;;;14.50;;
47856;SDS011;33618;49.972;8.242;2022-12-18T00:03:35;45.15;;;15.02;;
47856;SDS011;33618;49.972;8.242;2022-12-18T00:06:03;46.13;;;16.38;;
47856;SDS011;33618;49.972;8.242;2022-12-18T00:08:30;43.40;;;15.15;;
47856;SDS011;33618;49.972;8.242;2022-12-18T00:11:03;45.90;;;15.00;;
47856;SDS011;33618;49.972;8.242;2022-12-18T00:13:32;43.97;;;15.02;;
47856;SDS011;33618;49.972;8.242;2022-12-18T00:16:07;46.53;;;15.75;;
47856;SDS011;33618;49.972;8.242;2022-12-18T00:18:37;36.70;;;14.40;;
47856;SDS011;33618;49.972;8.242;2022-12-18T00:21:06;44.60;;;14.52;;
47856;SDS011;33618;49.972;8.242;2022-12-18T00:23:34;46.55;;;15.30;;
47856;SDS011;33618;49.972;8.242;2022-12-18T00:26:04;44.85;;;14.10;;
47856;SDS011;33618;49.972;8.242;2022-12-18T00:29:09;45.63;;;14.27;;
47856;SDS011;33618;49.972;8.242;2022-12-18T00:31:42;47.15;;;16.95;;
47856;SDS011;33618;49.972;8.242;2022-12-18T00:34:14;41.33;;;15.43;;
47856;SDS011;33618;49.972;8.242;2022-12-18T00:36:42;43.03;;;16.10;;
47856;SDS011;33618;49.972;8.242;2022-12-18T00:39:12;44.10;;;15.23;;
47856;SDS011;33618;49.972;8.242;2022-12-18T00:41:40;40.15;;;14.27;;
47856;SDS011;33618;49.972;8.242;2022-12-18T00:44:27;41.05;;;14.80;;
47856;SDS011;33618;49.972;8.242;2022-12-18T00:46:56;47.17;;;15.75;;
47856;SDS011;33618;49.972;8.242;2022-12-18T00:49:23;47.78;;;15.55;;
47856;SDS011;33618;49.972;8.242;2022-12-18T00:51:50;47.67;;;15.30;;
47856;SDS011;33618;49.972;8.242;2022-12-18T00:54:17;44.63;;;16.23;;
47856;SDS011;33618;49.972;8.242;2022-12-18T00:56:44;44.42;;;16.23;;
47856;SDS011;33618;49.972;8.242;2022-12-18T00:59:15;49.20;;;16.38;;
47856;SDS011;33618;49.972;8.242;2022-12-18T01:01:45;49.05;;;16.05;;
47856;SDS011;33618;49.972;8.242;2022-12-18T01:04:16;46.53;;;15.68;;
47856;SDS011;33618;49.972;8.242;2022-12-18T01:06:45;49.88;;;15.75;;
47856;SDS011;33618;49.972;8.242;2022-12-18T01:09:12;44.75;;;15.13;;
47856;SDS011;33618;49.972;8.242;2022-12-18T01:11:39;43.63;;;14.95;;
47856;SDS011;33618;49.972;8.242;2022-12-18T01:14:06;38.92;;;14.23;;
47856;SDS011;33618;49.972;8.242;2022-12-18T01:16:33;46.17;;;15.55;;
47856;SDS011;33618;49.972;8.242;2022-12-18T01:19:00;45.95;;;14.65;;
47856;SDS011;33618;49.972;8.242;2022-12-18T01:21:27;52.00;;;15.90;;
47856;SDS011;33618;49.972;8.242;2022-12-18T01:23:54;46.65;;;14.55;;
47856;SDS011;33618;49.972;8.242;2022-12-18T01:26:23;43.20;;;15.07;;
47856;SDS011;33618;49.972;8.242;2022-12-18T01:28:51;44.03;;;14.63;;
47856;SDS011;33618;49.972;8.242;2022-12-18T01:31:19;43.60;;;14.93;;
47856;SDS011;33618;49.972;8.242;2022-12-18T01:33:48;44.90;;;14.95;;
47856;SDS011;33618;49.972;8.242;2022-12-18T01:36:19;44.90;;;14.55;;
47856;SDS011;33618;49.972;8.242;2022-12-18T01:38:58;46.03;;;14.73;;
47856;SDS011;33618;49.972;8.242;2022-12-18T01:41:28;47.60;;;16.42;;
47856;SDS011;33618;49.972;8.242;2022-12-18T01:50:04;42.40;;;13.73;;
47856;SDS011;33618;49.972;8.242;2022-12-18T01:52:39;44.28;;;14.23;;
47856;SDS011;33618;49.972;8.242;2022-12-18T01:55:08;44.90;;;15.85;;
47856;SDS011;33618;49.972;8.242;2022-12-18T01:57:37;45.72;;;14.02;;
47856;SDS011;33618;49.972;8.242;2022-12-18T02:00:09;46.78;;;14.60;;
47856;SDS011;33618;49.972;8.242;2022-12-18T02:02:43;44.30;;;15.38;;
47856;SDS011;33618;49.972;8.242;2022-12-18T02:05:11;49.65;;;15.00;;
47856;SDS011;33618;49.972;8.242;2022-12-18T02:10:36;40.42;;;13.90;;
47856;SDS011;33618;49.972;8.242;2022-12-18T02:19:06;45.17;;;14.25;;
47856;SDS011;33618;49.972;8.242;2022-12-18T02:21:54;48.53;;;16.25;;
47856;SDS011;33618;49.972;8.242;2022-12-18T02:27:21;46.80;;;14.35;;
47856;SDS011;33618;49.972;8.242;2022-12-18T02:29:50;40.97;;;14.35;;
47856;SDS011;33618;49.972;8.242;2022-12-18T02:32:27;42.60;;;14.68;;
47856;SDS011;33618;49.972;8.242;2022-12-18T02:34:57;44.03;;;15.93;;
47856;SDS011;33618;49.972;8.242;2022-12-18T02:37:25;48.17;;;15.25;;
47856;SDS011;33618;49.972;8.242;2022-12-18T02:39:54;41.58;;;14.82;;
47856;SDS011;33618;49.972;8.242;2022-12-18T02:42:23;51.88;;;15.90;;
47856;SDS011;33618;49.972;8.242;2022-12-18T02:44:51;40.90;;;14.60;;
47856;SDS011;33618;49.972;8.242;2022-12-18T02:47:22;44.30;;;15.05;;
47856;SDS011;33618;49.972;8.242;2022-12-18T02:57:58;37.28;;;14.43;;
47856;SDS011;33618;49.972;8.242;2022-12-18T03:00:51;43.42;;;15.27;;
47856;SDS011;33618;49.972;8.242;2022-12-18T03:03:34;41.55;;;15.10;;
47856;SDS011;33618;49.972;8.242;2022-12-18T03:06:11;39.72;;;14.60;;
47856;SDS011;33618;49.972;8.242;2022-12-18T03:09:01;43.60;;;14.98;;
47856;SDS011;33618;49.972;8.242;2022-12-18T03:11:33;43.35;;;14.25;;
47856;SDS011;33618;49.972;8.242;2022-12-18T03:14:22;38.88;;;14.30;;
47856;SDS011;33618;49.972;8.242;2022-12-18T03:16:53;41.17;;;15.20;;
47856;SDS011;33618;49.972;8.242;2022-12-18T03:23:15;44.47;;;15.98;;
47856;SDS011;33618;49.972;8.242;2022-12-18T03:25:51;41.25;;;14.32;;
47856;SDS011;33618;49.972;8.242;2022-12-18T03:28:22;42.47;;;15.30;;
47856;SDS011;33618;49.972;8.242;2022-12-18T03:30:52;38.95;;;14.48;;
47856;SDS011;33618;49.972;8.242;2022-12-18T03:33:27;37.80;;;14.88;;
47856;SDS011;33618;49.972;8.242;2022-12-18T03:36:04;39.25;;;14.02;;
47856;SDS011;33618;49.972;8.242;2022-12-18T03:38:31;44.03;;;14.07;;
47856;SDS011;33618;49.972;8.242;2022-12-18T03:43:48;41.00;;;14.93;;
47856;SDS011;33618;49.972;8.242;2022-12-18T03:46:45;36.47;;;13.50;;
47856;SDS011;33618;49.972;8.242;2022-12-18T03:49:38;38.33;;;14.40;;
47856;SDS011;33618;49.972;8.242;2022-12-18T03:55:05;43.55;;;14.00;;
47856;SDS011;33618;49.972;8.242;2022-12-18T03:57:33;40.65;;;14.73;;
47856;SDS011;33618;49.972;8.242;2022-12-18T04:00:03;40.03;;;13.50;;
47856;SDS011;33618;49.972;8.242;2022-12-18T04:02:35;39.08;;;13.40;;
47856;SDS011;33618;49.972;8.242;2022-12-18T04:05:06;33.47;;;13.63;;
47856;SDS011;33618;49.972;8.242;2022-12-18T04:07:35;35.03;;;13.43;;
47856;SDS011;33618;49.972;8.242;2022-12-18T04:10:03;33.50;;;13.35;;
47856;SDS011;33618;49.972;8.242;2022-12-18T04:12:32;39.80;;;13.63;;
47856;SDS011;33618;49.972;8.242;2022-12-18T04:14:59;38.92;;;13.77;;
47856;SDS011;33618;49.972;8.242;2022-12-18T04:17:26;44.17;;;13.55;;
47856;SDS011;33618;49.972;8.242;2022-12-18T04:19:53;44.60;;;14.63;;
47856;SDS011;33618;49.972;8.242;2022-12-18T04:22:20;32.33;;;12.63;;
47856;SDS011;33618;49.972;8.242;2022-12-18T04:24:47;36.45;;;14.18;;
47856;SDS011;33618;49.972;8.242;2022-12-18T04:27:14;40.85;;;13.77;;
47856;SDS011;33618;49.972;8.242;2022-12-18T04:29:41;38.40;;;14.23;;
47856;SDS011;33618;49.972;8.242;2022-12-18T04:32:08;33.47;;;13.07;;
47856;SDS011;33618;49.972;8.242;2022-12-18T04:34:35;34.40;;;14.05;;
47856;SDS011;33618;49.972;8.242;2022-12-18T04:37:02;33.00;;;13.90;;
47856;SDS011;33618;49.972;8.242;2022-12-18T04:39:29;40.17;;;14.05;;
47856;SDS011;33618;49.972;8.242;2022-12-18T04:41:56;34.85;;;13.77;;
47856;SDS011;33618;49.972;8.242;2022-12-18T04:44:23;36.63;;;13.50;;
47856;SDS011;33618;49.972;8.242;2022-12-18T04:46:49;46.45;;;14.43;;
47856;SDS011;33618;49.972;8.242;2022-12-18T04:49:16;34.60;;;13.68;;
47856;SDS011;33618;49.972;8.242;2022-12-18T04:51:43;33.00;;;13.02;;
47856;SDS011;33618;49.972;8.242;2022-12-18T04:54:10;38.10;;;13.70;;
47856;SDS011;33618;49.972;8.242;2022-12-18T04:56:37;38.60;;;14.05;;
47856;SDS011;33618;49.972;8.242;2022-12-18T04:59:04;33.28;;;13.10;;
47856;SDS011;33618;49.972;8.242;2022-12-18T05:01:31;38.60;;;13.40;;
47856;SDS011;33618;49.972;8.242;2022-12-18T05:04:01;36.42;;;14.38;;
47856;SDS011;33618;49.972;8.242;2022-12-18T05:06:28;42.17;;;14.20;;
47856;SDS011;33618;49.972;8.242;2022-12-18T05:08:55;36.53;;;15.13;;
47856;SDS011;33618;49.972;8.242;2022-12-18T05:11:22;34.63;;;15.35;;
47856;SDS011;33618;49.972;8.242;2022-12-18T05:13:50;37.78;;;15.75;;
47856;SDS011;33618;49.972;8.242;2022-12-18T05:16:17;41.42;;;14.77;;
47856;SDS011;33618;49.972;8.242;2022-12-18T05:18:44;38.75;;;15.60;;
47856;SDS011;33618;49.972;8.242;2022-12-18T05:21:11;39.67;;;15.00;;
47856;SDS011;33618;49.972;8.242;2022-12-18T05:23:37;43.70;;;16.33;;
47856;SDS011;33618;49.972;8.242;2022-12-18T05:26:05;40.72;;;15.63;;
47856;SDS011;33618;49.972;8.242;2022-12-18T05:28:34;45.25;;;15.93;;
47856;SDS011;33618;49.972;8.242;2022-12-18T05:31:02;40.95;;;15.98;;
47856;SDS011;33618;49.972;8.242;2022-12-18T05:33:31;38.25;;;15.95;;
47856;SDS011;33618;49.972;8.242;2022-12-18T05:36:00;42.00;;;16.35;;
47856;SDS011;33618;49.972;8.242;2022-12-18T05:38:29;42.38;;;16.55;;
47856;SDS011;33618;49.972;8.242;2022-12-18T05:40:56;39.65;;;15.82;;
47856;SDS011;33618;49.972;8.242;2022-12-18T05:43:24;36.00;;;14.38;;
47856;SDS011;33618;49.972;8.242;2022-12-18T05:45:52;42.28;;;15.82;;
47856;SDS011;33618;49.972;8.242;2022-12-18T05:48:20;43.72;;;16.23;;
47856;SDS011;33618;49.972;8.242;2022-12-18T05:50:48;40.78;;;15.23;;
47856;SDS011;33618;49.972;8.242;2022-12-18T05:53:16;42.83;;;15.70;;
47856;SDS011;33618;49.972;8.242;2022-12-18T05:55:45;44.65;;;15.63;;
47856;SDS011;33618;49.972;8.242;2022-12-18T05:58:13;43.15;;;16.00;;
47856;SDS011;33618;49.972;8.242;2022-12-18T06:00:42;45.67;;;16.17;;
47856;SDS011;33618;49.972;8.242;2022-12-18T06:03:11;39.30;;;15.85;;
47856;SDS011;33618;49.972;8.242;2022-12-18T06:05:40;46.20;;;16.33;;
47856;SDS011;33618;49.972;8.242;2022-12-18T06:08:10;48.10;;;15.55;;
47856;SDS011;33618;49.972;8.242;2022-12-18T06:10:39;38.85;;;16.30;;
47856;SDS011;33618;49.972;8.242;2022-12-18T06:13:07;45.28;;;16.17;;
47856;SDS011;33618;49.972;8.242;2022-12-18T06:15:36;52.13;;;16.38;;
47856;SDS011;33618;49.972;8.242;2022-12-18T06:18:03;46.45;;;16.48;;
47856;SDS011;33618;49.972;8.242;2022-12-18T06:20:30;41.58;;;15.63;;
47856;SDS011;33618;49.972;8.242;2022-12-18T06:22:59;40.25;;;15.93;;
47856;SDS011;33618;49.972;8.242;2022-12-18T06:25:27;39.28;;;15.38;;
47856;SDS011;33618;49.972;8.242;2022-12-18T06:36:20;44.78;;;15.88;;
47856;SDS011;33618;49.972;8.242;2022-12-18T06:38:47;40.55;;;15.43;;
47856;SDS011;33618;49.972;8.242;2022-12-18T06:41:15;43.30;;;14.63;;
47856;SDS011;33618;49.972;8.242;2022-12-18T06:43:44;46.35;;;16.17;;
47856;SDS011;33618;49.972;8.242;2022-12-18T06:46:11;43.20;;;15.88;;
47856;SDS011;33618;49.972;8.242;2022-12-18T06:48:39;53.90;;;16.33;;
47856;SDS011;33618;49.972;8.242;2022-12-18T06:51:06;51.53;;;16.45;;
47856;SDS011;33618;49.972;8.242;2022-12-18T06:53:34;42.92;;;16.38;;
47856;SDS011;33618;49.972;8.242;2022-12-18T06:56:03;39.30;;;15.30;;
47856;SDS011;33618;49.972;8.242;2022-12-18T06:58:36;44.88;;;16.45;;
47856;SDS011;33618;49.972;8.242;2022-12-18T07:01:08;43.20;;;15.65;;
47856;SDS011;33618;49.972;8.242;2022-12-18T07:03:37;47.33;;;15.30;;
47856;SDS011;33618;49.972;8.242;2022-12-18T07:06:11;45.88;;;15.80;;
47856;SDS011;33618;49.972;8.242;2022-12-18T07:08:41;40.38;;;14.90;;
47856;SDS011;33618;49.972;8.242;2022-12-18T07:11:08;44.55;;;16.35;;
47856;SDS011;33618;49.972;8.242;2022-12-18T07:13:36;41.30;;;14.60;;
47856;SDS011;33618;49.972;8.242;2022-12-18T07:16:05;54.55;;;15.48;;
47856;SDS011;33618;49.972;8.242;2022-12-18T07:18:46;46.15;;;16.27;;
47856;SDS011;33618;49.972;8.242;2022-12-18T07:21:15;54.17;;;15.63;;
47856;SDS011;33618;49.972;8.242;2022-12-18T07:23:44;41.60;;;15.02;;
47856;SDS011;33618;49.972;8.242;2022-12-18T07:26:16;48.60;;;16.55;;
47856;SDS011;33618;49.972;8.242;2022-12-18T07:28:45;50.10;;;16.67;;
47856;SDS011;33618;49.972;8.242;2022-12-18T07:31:14;46.45;;;16.05;;
47856;SDS011;33618;49.972;8.242;2022-12-18T07:33:43;49.47;;;16.02;;
47856;SDS011;33618;49.972;8.242;2022-12-18T07:36:11;47.88;;;16.52;;
47856;SDS011;33618;49.972;8.242;2022-12-18T07:38:40;52.50;;;17.15;;
47856;SDS011;33618;49.972;8.242;2022-12-18T07:41:11;41.38;;;15.15;;
47856;SDS011;33618;49.972;8.242;2022-12-18T07:43:40;42.70;;;15.23;;
47856;SDS011;33618;49.972;8.242;2022-12-18T07:46:08;46.15;;;15.98;;
47856;SDS011;33618;49.972;8.242;2022-12-18T07:48:39;43.38;;;17.17;;
47856;SDS011;33618;49.972;8.242;2022-12-18T07:51:06;47.00;;;16.35;;
47856;SDS011;33618;49.972;8.242;2022-12-18T07:53:34;43.70;;;16.48;;
47856;SDS011;33618;49.972;8.242;2022-12-18T07:56:04;45.05;;;16.23;;
47856;SDS011;33618;49.972;8.242;2022-12-18T07:58:53;46.22;;;17.02;;
47856;SDS011;33618;49.972;8.242;2022-12-18T08:01:20;53.67;;;17.33;;
47856;SDS011;33618;49.972;8.242;2022-12-18T08:03:48;44.65;;;16.63;;
47856;SDS011;33618;49.972;8.242;2022-12-18T08:06:17;49.25;;;18.25;;
47856;SDS011;33618;49.972;8.242;2022-12-18T08:08:52;41.65;;;16.05;;
47856;SDS011;33618;49.972;8.242;2022-12-18T08:11:21;42.55;;;17.00;;
47856;SDS011;33618;49.972;8.242;2022-12-18T08:13:49;40.22;;;15.82;;
47856;SDS011;33618;49.972;8.242;2022-12-18T08:16:17;42.72;;;16.67;;
47856;SDS011;33618;49.972;8.242;2022-12-18T08:18:46;43.92;;;17.27;;
47856;SDS011;33618;49.972;8.242;2022-12-18T08:21:16;40.15;;;17.95;;
47856;SDS011;33618;49.972;8.242;2022-12-18T08:23:47;41.10;;;16.48;;
47856;SDS011;33618;49.972;8.242;2022-12-18T08:26:16;47.00;;;17.77;;
47856;SDS011;33618;49.972;8.242;2022-12-18T08:28:44;43.58;;;18.17;;
47856;SDS011;33618;49.972;8.242;2022-12-18T08:31:13;44.63;;;17.90;;
47856;SDS011;33618;49.972;8.242;2022-12-18T08:33:41;49.65;;;18.83;;
47856;SDS011;33618;49.972;8.242;2022-12-18T08:36:09;44.72;;;18.00;;
47856;SDS011;33618;49.972;8.242;2022-12-18T08:38:37;47.50;;;18.35;;
47856;SDS011;33618;49.972;8.242;2022-12-18T08:41:05;44.75;;;18.50;;
47856;SDS011;33618;49.972;8.242;2022-12-18T08:43:34;42.35;;;18.40;;
47856;SDS011;33618;49.972;8.242;2022-12-18T08:46:20;46.83;;;20.00;;
47856;SDS011;33618;49.972;8.242;2022-12-18T08:48:50;44.50;;;18.45;;
47856;SDS011;33618;49.972;8.242;2022-12-18T08:51:18;43.55;;;18.90;;
47856;SDS011;33618;49.972;8.242;2022-12-18T08:53:46;46.13;;;18.85;;
47856;SDS011;33618;49.972;8.242;2022-12-18T08:56:14;47.38;;;18.15;;
47856;SDS011;33618;49.972;8.242;2022-12-18T08:58:41;44.70;;;18.90;;
47856;SDS011;33618;49.972;8.242;2022-12-18T09:01:10;48.00;;;19.92;;
47856;SDS011;33618;49.972;8.242;2022-12-18T09:03:39;45.75;;;19.27;;
47856;SDS011;33618;49.972;8.242;2022-12-18T09:06:07;42.45;;;19.27;;
47856;SDS011;33618;49.972;8.242;2022-12-18T09:08:34;47.45;;;18.55;;
47856;SDS011;33618;49.972;8.242;2022-12-18T09:11:03;44.38;;;18.30;;
47856;SDS011;33618;49.972;8.242;2022-12-18T09:13:31;42.22;;;18.13;;
47856;SDS011;33618;49.972;8.242;2022-12-18T09:15:58;43.03;;;19.05;;
47856;SDS011;33618;49.972;8.242;2022-12-18T09:18:25;41.85;;;18.58;;
47856;SDS011;33618;49.972;8.242;2022-12-18T09:20:52;44.03;;;18.45;;
47856;SDS011;33618;49.972;8.242;2022-12-18T09:23:20;37.80;;;17.38;;
47856;SDS011;33618;49.972;8.242;2022-12-18T09:25:47;41.45;;;18.20;;
47856;SDS011;33618;49.972;8.242;2022-12-18T09:28:18;40.33;;;17.63;;
47856;SDS011;33618;49.972;8.242;2022-12-18T09:30:46;43.03;;;17.60;;
47856;SDS011;33618;49.972;8.242;2022-12-18T09:33:16;41.78;;;17.80;;
47856;SDS011;33618;49.972;8.242;2022-12-18T09:35:44;42.22;;;18.17;;
47856;SDS011;33618;49.972;8.242;2022-12-18T09:38:13;41.78;;;17.73;;
47856;SDS011;33618;49.972;8.242;2022-12-18T09:40:43;39.90;;;17.73;;
47856;SDS011;33618;49.972;8.242;2022-12-18T09:43:30;44.53;;;17.60;;
47856;SDS011;33618;49.972;8.242;2022-12-18T09:46:11;44.00;;;17.85;;
47856;SDS011;33618;49.972;8.242;2022-12-18T09:48:47;43.05;;;18.17;;
47856;SDS011;33618;49.972;8.242;2022-12-18T09:51:18;42.95;;;18.65;;
47856;SDS011;33618;49.972;8.242;2022-12-18T09:53:55;45.40;;;17.67;;
47856;SDS011;33618;49.972;8.242;2022-12-18T09:56:26;43.05;;;18.42;;
47856;SDS011;33618;49.972;8.242;2022-12-18T09:58:58;39.53;;;18.02;;
47856;SDS011;33618;49.972;8.242;2022-12-18T10:01:27;43.22;;;17.80;;
47856;SDS011;33618;49.972;8.242;2022-12-18T10:04:08;44.65;;;18.05;;
47856;SDS011;33618;49.972;8.242;2022-12-18T10:06:43;40.70;;;18.00;;
47856;SDS011;33618;49.972;8.242;2022-12-18T10:09:33;37.58;;;17.75;;
47856;SDS011;33618;49.972;8.242;2022-12-18T10:12:12;38.65;;;17.40;;
47856;SDS011;33618;49.972;8.242;2022-12-18T10:17:33;44.53;;;18.80;;
47856;SDS011;33618;49.972;8.242;2022-12-18T10:20:13;127.78;;;65.50;;
47856;SDS011;33618;49.972;8.242;2022-12-18T10:22:52;165.23;;;99.18;;
47856;SDS011;33618;49.972;8.242;2022-12-18T10:28:29;56.08;;;29.33;;
47856;SDS011;33618;49.972;8.242;2022-12-18T10:30:58;54.13;;;26.08;;
47856;SDS011;33618;49.972;8.242;2022-12-18T10:33:28;45.97;;;21.15;;
47856;SDS011;33618;49.972;8.242;2022-12-18T10:35:56;46.05;;;19.77;;
47856;SDS011;33618;49.972;8.242;2022-12-18T10:38:27;40.78;;;19.08;;
47856;SDS011;33618;49.972;8.242;2022-12-18T10:44:10;51.80;;;21.65;;
47856;SDS011;33618;49.972;8.242;2022-12-18T10:46:39;313.23;;;81.35;;
47856;SDS011;33618;49.972;8.242;2022-12-18T10:49:17;366.58;;;82.18;;
47856;SDS011;33618;49.972;8.242;2022-12-18T10:51:50;166.05;;;51.72;;
47856;SDS011;33618;49.972;8.242;2022-12-18T10:54:30;213.40;;;72.78;;
47856;SDS011;33618;49.972;8.242;2022-12-18T11:08:30;57.83;;;23.20;;
47856;SDS011;33618;49.972;8.242;2022-12-18T11:10:58;52.35;;;22.83;;
47856;SDS011;33618;49.972;8.242;2022-12-18T11:13:27;41.28;;;18.83;;
47856;SDS011;33618;49.972;8.242;2022-12-18T11:15:56;42.92;;;19.23;;
47856;SDS011;33618;49.972;8.242;2022-12-18T11:18:33;51.53;;;21.95;;
47856;SDS011;33618;49.972;8.242;2022-12-18T11:21:08;144.02;;;45.80;;
47856;SDS011;33618;49.972;8.242;2022-12-18T11:23:37;85.93;;;29.02;;
47856;SDS011;33618;49.972;8.242;2022-12-18T11:26:19;590.67;;;192.38;;
47856;SDS011;33618;49.972;8.242;2022-12-18T11:28:53;173.88;;;56.10;;
47856;SDS011;33618;49.972;8.242;2022-12-18T11:31:43;96.05;;;36.97;;
47856;SDS011;33618;49.972;8.242;2022-12-18T11:37:18;116.15;;;47.55;;
47856;SDS011;33618;49.972;8.242;2022-12-18T11:39:46;157.88;;;59.05;;
47856;SDS011;33618;49.972;8.242;2022-12-18T11:44:54;329.58;;;103.78;;
47856;SDS011;33618;49.972;8.242;2022-12-18T11:50:10;300.83;;;85.72;;
47856;SDS011;33618;49.972;8.242;2022-12-18T11:52:44;421.48;;;118.32;;
47856;SDS011;33618;49.972;8.242;2022-12-18T11:55:16;410.35;;;118.55;;
47856;SDS011;33618;49.972;8.242;2022-12-18T11:58:01;198.35;;;54.40;;
47856;SDS011;33618;49.972;8.242;2022-12-18T12:00:46;180.60;;;63.25;;
47856;SDS011;33618;49.972;8.242;2022-12-18T12:03:38;56.65;;;28.45;;
47856;SDS011;33618;49.972;8.242;2022-12-18T12:07:18;41.75;;;21.00;;
47856;SDS011;33618;49.972;8.242;2022-12-18T12:17:42;48.20;;;23.58;;
47856;SDS011;33618;49.972;8.242;2022-12-18T12:20:23;47.92;;;22.92;;
47856;SDS011;33618;49.972;8.242;2022-12-18T12:23:26;45.50;;;20.80;;
47856;SDS011;33618;49.972;8.242;2022-12-18T12:34:25;46.10;;;20.75;;
47856;SDS011;33618;49.972;8.242;2022-12-18T12:39:48;46.88;;;20.60;;
47856;SDS011;33618;49.972;8.242;2022-12-18T12:45:28;48.38;;;20.83;;
47856;SDS011;33618;49.972;8.242;2022-12-18T12:48:01;42.03;;;19.65;;
47856;SDS011;33618;49.972;8.242;2022-12-18T12:50:30;50.90;;;21.73;;
47856;SDS011;33618;49.972;8.242;2022-12-18T12:53:01;43.63;;;19.92;;
47856;SDS011;33618;49.972;8.242;2022-12-18T12:55:36;43.55;;;20.08;;
47856;SDS011;33618;49.972;8.242;2022-12-18T13:00:43;45.22;;;19.33;;
47856;SDS011;33618;49.972;8.242;2022-12-18T13:03:27;44.05;;;20.13;;
47856;SDS011;33618;49.972;8.242;2022-12-18T13:06:14;45.42;;;20.17;;
47856;SDS011;33618;49.972;8.242;2022-12-18T13:08:57;47.35;;;19.85;;
47856;SDS011;33618;49.972;8.242;2022-12-18T13:11:31;43.70;;;20.58;;
47856;SDS011;33618;49.972;8.242;2022-12-18T13:14:43;41.85;;;18.65;;
47856;SDS011;33618;49.972;8.242;2022-12-18T13:19:48;44.20;;;19.60;;
47856;SDS011;33618;49.972;8.242;2022-12-18T13:22:24;44.65;;;19.45;;
47856;SDS011;33618;49.972;8.242;2022-12-18T13:43:35;50.20;;;19.40;;
47856;SDS011;33618;49.972;8.242;2022-12-18T13:51:27;45.28;;;18.88;;
47856;SDS011;33618;49.972;8.242;2022-12-18T13:53:58;49.35;;;20.40;;
47856;SDS011;33618;49.972;8.242;2022-12-18T13:56:33;41.25;;;18.10;;
47856;SDS011;33618;49.972;8.242;2022-12-18T13:59:20;46.00;;;19.20;;
47856;SDS011;33618;49.972;8.242;2022-12-18T14:01:51;46.63;;;18.35;;
47856;SDS011;33618;49.972;8.242;2022-12-18T14:07:04;47.85;;;18.30;;
47856;SDS011;33618;49.972;8.242;2022-12-18T16:54:50;48.67;;;17.90;;
47856;SDS011;33618;49.972;8.242;2022-12-18T16:57:24;53.35;;;18.42;;
47856;SDS011;33618;49.972;8.242;2022-12-18T16:59:53;54.03;;;19.00;;
47856;SDS011;33618;49.972;8.242;2022-12-18T18:16:13;47.30;;;18.35;;
47856;SDS011;33618;49.972;8.242;2022-12-18T18:18:41;54.28;;;18.55;;
47856;SDS011;33618;49.972;8.242;2022-12-18T18:21:09;48.10;;;18.92;;
47856;SDS011;33618;49.972;8.242;2022-12-18T18:23:38;49.53;;;18.15;;
47856;SDS011;33618;49.972;8.242;2022-12-18T18:56:30;50.65;;;18.33;;
47856;SDS011;33618;49.972;8.242;2022-12-18T18:59:18;49.05;;;17.95;;
47856;SDS011;33618;49.972;8.242;2022-12-18T19:01:55;52.20;;;19.48;;
47856;SDS011;33618;49.972;8.242;2022-12-18T19:04:23;51.28;;;19.38;;
47856;SDS011;33618;49.972;8.242;2022-12-18T19:06:51;53.47;;;18.42;;
47856;SDS011;33618;49.972;8.242;2022-12-18T19:09:19;54.78;;;19.40;;
47856;SDS011;33618;49.972;8.242;2022-12-18T19:11:47;48.72;;;19.60;;
47856;SDS011;33618;49.972;8.242;2022-12-18T19:21:05;53.92;;;18.90;;
47856;SDS011;33618;49.972;8.242;2022-12-18T19:23:33;54.97;;;19.00;;
47856;SDS011;33618;49.972;8.242;2022-12-18T19:26:05;50.90;;;18.33;;
47856;SDS011;33618;49.972;8.242;2022-12-18T19:39:26;60.85;;;18.17;;
47856;SDS011;33618;49.972;8.242;2022-12-18T19:41:55;54.85;;;18.35;;
47856;SDS011;33618;49.972;8.242;2022-12-18T19:44:23;54.22;;;19.02;;
47856;SDS011;33618;49.972;8.242;2022-12-18T19:46:55;58.38;;;18.90;;
47856;SDS011;33618;49.972;8.242;2022-12-18T19:49:23;58.22;;;19.73;;
47856;SDS011;33618;49.972;8.242;2022-12-18T19:51:51;65.28;;;20.60;;
47856;SDS011;33618;49.972;8.242;2022-12-18T20:17:51;61.75;;;18.60;;
47856;SDS011;33618;49.972;8.242;2022-12-18T20:20:18;62.38;;;20.10;;
47856;SDS011;33618;49.972;8.242;2022-12-18T20:22:46;55.65;;;18.38;;
47856;SDS011;33618;49.972;8.242;2022-12-18T20:25:13;62.90;;;19.23;;
47856;SDS011;33618;49.972;8.242;2022-12-18T20:27:40;54.40;;;18.33;;
47856;SDS011;33618;49.972;8.242;2022-12-18T20:30:07;56.38;;;19.77;;
47856;SDS011;33618;49.972;8.242;2022-12-18T20:32:35;52.33;;;17.88;;
47856;SDS011;33618;49.972;8.242;2022-12-18T20:35:03;57.78;;;19.55;;
47856;SDS011;33618;49.972;8.242;2022-12-18T20:37:31;51.60;;;19.58;;
47856;SDS011;33618;49.972;8.242;2022-12-18T20:39:59;57.00;;;18.85;;
47856;SDS011;33618;49.972;8.242;2022-12-18T20:42:27;54.20;;;18.15;;
47856;SDS011;33618;49.972;8.242;2022-12-18T20:44:54;45.22;;;18.10;;
47856;SDS011;33618;49.972;8.242;2022-12-18T20:55:39;55.38;;;18.38;;
47856;SDS011;33618;49.972;8.242;2022-12-18T20:58:25;44.83;;;18.02;;
47856;SDS011;33618;49.972;8.242;2022-12-18T21:01:05;52.70;;;19.73;;
47856;SDS011;33618;49.972;8.242;2022-12-18T21:03:42;50.88;;;18.77;;
47856;SDS011;33618;49.972;8.242;2022-12-18T21:06:11;49.85;;;18.95;;
47856;SDS011;33618;49.972;8.242;2022-12-18T21:08:39;44.80;;;17.80;;
47856;SDS011;33618;49.972;8.242;2022-12-18T21:11:27;45.65;;;18.83;;
47856;SDS011;33618;49.972;8.242;2022-12-18T21:16:43;46.15;;;17.90;;
47856;SDS011;33618;49.972;8.242;2022-12-18T21:19:11;51.63;;;18.95;;
47856;SDS011;33618;49.972;8.242;2022-12-18T21:21:39;49.67;;;19.50;;
47856;SDS011;33618;49.972;8.242;2022-12-18T21:24:08;48.35;;;18.20;;
47856;SDS011;33618;49.972;8.242;2022-12-18T21:26:36;49.47;;;19.05;;
47856;SDS011;33618;49.972;8.242;2022-12-18T21:29:11;46.00;;;18.70;;
47856;SDS011;33618;49.972;8.242;2022-12-18T21:31:40;42.47;;;18.15;;
47856;SDS011;33618;49.972;8.242;2022-12-18T21:34:09;47.75;;;19.13;;
47856;SDS011;33618;49.972;8.242;2022-12-18T21:36:45;49.10;;;18.25;;
47856;SDS011;33618;49.972;8.242;2022-12-18T21:39:12;47.38;;;18.15;;
47856;SDS011;33618;49.972;8.242;2022-12-18T21:41:40;48.05;;;18.42;;
47856;SDS011;33618;49.972;8.242;2022-12-18T21:44:26;48.60;;;18.13;;
47856;SDS011;33618;49.972;8.242;2022-12-18T21:46:54;46.45;;;18.73;;
47856;SDS011;33618;49.972;8.242;2022-12-18T21:49:34;45.95;;;17.17;;
47856;SDS011;33618;49.972;8.242;2022-12-18T21:52:01;42.13;;;17.10;;
47856;SDS011;33618;49.972;8.242;2022-12-18T22:24:49;47.20;;;17.92;;
47856;SDS011;33618;49.972;8.242;2022-12-18T22:27:16;49.70;;;18.73;;
47856;SDS011;33618;49.972;8.242;2022-12-18T22:29:43;44.83;;;17.65;;
47856;SDS011;33618;49.972;8.242;2022-12-18T22:32:30;46.22;;;17.30;;
47856;SDS011;33618;49.972;8.242;2022-12-18T22:35:01;46.28;;;18.33;;
47856;SDS011;33618;49.972;8.242;2022-12-18T22:37:38;70.38;;;28.05;;
47856;SDS011;33618;49.972;8.242;2022-12-18T22:40:05;51.30;;;20.77;;
47856;SDS011;33618;49.972;8.242;2022-12-18T22:42:32;48.38;;;18.70;;
47856;SDS011;33618;49.972;8.242;2022-12-18T22:44:59;58.35;;;18.40;;